createdAt,value
2019-03-08T00:00:52.614Z,98504.91
2019-03-08T00:03:19.184Z,98499.85
2019-03-08T00:05:45.755Z,98496.75
2019-03-08T00:08:12.335Z,98503.61
2019-03-08T00:10:38.914Z,98501.31
2019-03-08T00:13:05.568Z,98511.41
2019-03-08T00:15:32.415Z,98512.15
2019-03-08T00:17:58.987Z,98519.59
2019-03-08T00:20:25.566Z,98516.81
2019-03-08T00:22:52.153Z,98506.95
2019-03-08T00:25:18.792Z,98498.45
2019-03-08T00:27:45.374Z,98508.30
2019-03-08T00:30:11.953Z,98507.20
2019-03-08T00:32:38.545Z,98499.50
2019-03-08T00:35:05.109Z,98502.38
2019-03-08T00:37:31.681Z,98504.30
2019-03-08T00:39:58.280Z,98515.97
2019-03-08T00:42:24.856Z,98518.84
2019-03-08T00:44:51.444Z,98520.88
2019-03-08T00:47:18.051Z,98524.95
2019-03-08T00:49:44.659Z,98521.70
2019-03-08T00:52:11.472Z,98525.92
2019-03-08T00:54:38.098Z,98527.47
2019-03-08T00:57:04.690Z,98534.19
2019-03-08T00:59:31.271Z,98542.71
2019-03-08T01:01:57.888Z,98540.66
2019-03-08T01:04:24.465Z,98560.95
2019-03-08T01:06:51.035Z,98551.81
2019-03-08T01:09:17.989Z,98537.03
2019-03-08T01:11:45.338Z,98552.05
2019-03-08T01:14:12.127Z,98553.52
2019-03-08T01:16:38.699Z,98565.51
2019-03-08T01:19:05.350Z,98562.73
2019-03-08T01:21:31.923Z,98564.16
2019-03-08T01:23:58.512Z,98568.82
2019-03-08T01:26:25.367Z,98570.25
2019-03-08T01:28:51.960Z,98573.84
2019-03-08T01:31:18.528Z,98567.61
2019-03-08T01:33:45.145Z,98574.80
2019-03-08T01:36:11.718Z,98570.62
2019-03-08T01:38:38.331Z,98564.72
2019-03-08T01:41:04.909Z,98559.25
2019-03-08T01:43:31.924Z,98562.48
2019-03-08T01:45:58.507Z,98563.55
2019-03-08T01:48:25.107Z,98560.91
2019-03-08T01:50:51.686Z,98563.19
2019-03-08T01:53:18.291Z,98575.91
2019-03-08T01:55:44.858Z,98577.66
2019-03-08T01:58:11.464Z,98571.16
2019-03-08T02:00:38.043Z,98568.48
2019-03-08T02:03:04.654Z,98573.61
2019-03-08T02:05:31.232Z,98574.78
2019-03-08T02:07:57.846Z,98570.11
2019-03-08T02:10:24.424Z,98568.91
2019-03-08T02:12:51.013Z,98572.60
2019-03-08T02:15:17.589Z,98569.59
2019-03-08T02:17:44.207Z,98570.17
2019-03-08T02:20:10.781Z,98573.19
2019-03-08T02:22:37.395Z,98569.70
2019-03-08T02:25:03.964Z,98580.15
2019-03-08T02:27:30.582Z,98573.29
2019-03-08T02:29:57.151Z,98574.24
2019-03-08T02:32:23.716Z,98580.95
2019-03-08T02:34:50.292Z,98582.84
2019-03-08T02:37:17.155Z,98577.20
2019-03-08T02:39:43.736Z,98577.81
2019-03-08T02:42:10.300Z,98580.45
2019-03-08T02:44:36.880Z,98573.13
2019-03-08T02:47:03.450Z,98584.99
2019-03-08T02:49:30.218Z,98588.95
2019-03-08T02:51:56.798Z,98595.55
2019-03-08T02:54:23.662Z,98594.23
2019-03-08T02:56:50.230Z,98600.24
2019-03-08T02:59:16.816Z,98599.27
2019-03-08T03:01:43.378Z,98598.78
2019-03-08T03:04:09.957Z,98595.67
2019-03-08T03:06:36.525Z,98599.63
2019-03-08T03:09:03.124Z,98601.91
2019-03-08T03:11:29.952Z,98604.20
2019-03-08T03:13:56.573Z,98598.08
2019-03-08T03:16:23.153Z,98599.41
2019-03-08T03:18:49.799Z,98599.03
2019-03-08T03:21:16.382Z,98598.92
2019-03-08T03:23:42.950Z,98598.92
2019-03-08T03:26:09.532Z,98600.24
2019-03-08T03:28:36.300Z,98605.64
2019-03-08T03:31:02.880Z,98610.34
2019-03-08T03:33:29.599Z,98624.64
2019-03-08T03:35:56.226Z,98635.94
2019-03-08T03:38:22.828Z,98638.84
2019-03-08T03:40:49.476Z,98645.33
2019-03-08T03:43:16.080Z,98645.80
2019-03-08T03:45:42.647Z,98644.96
2019-03-08T03:48:09.268Z,98644.11
2019-03-08T03:50:35.841Z,98642.80
2019-03-08T03:53:02.440Z,98646.28
2019-03-08T03:55:29.144Z,98645.70
2019-03-08T03:57:55.721Z,98651.31
2019-03-08T04:00:22.319Z,98659.97
2019-03-08T04:02:48.887Z,98656.75
2019-03-08T04:05:15.500Z,98660.50
2019-03-08T04:07:42.069Z,98659.91
2019-03-08T04:10:08.671Z,98664.14
2019-03-08T04:12:35.243Z,98659.96
2019-03-08T04:15:01.886Z,98661.52
2019-03-08T04:17:28.522Z,98661.30
2019-03-08T04:19:55.198Z,98655.44
2019-03-08T04:22:22.054Z,98647.30
2019-03-08T04:24:48.667Z,98647.09
2019-03-08T04:27:15.235Z,98651.16
2019-03-08T04:29:41.852Z,98641.34
2019-03-08T04:32:08.428Z,98638.84
2019-03-08T04:34:35.041Z,98648.83
2019-03-08T04:37:01.618Z,98650.91
2019-03-08T04:39:28.392Z,98648.53
2019-03-08T04:41:54.969Z,98636.50
2019-03-08T04:44:21.555Z,98641.31
2019-03-08T04:46:48.154Z,98639.88
2019-03-08T04:49:14.813Z,98649.02
2019-03-08T04:51:41.411Z,98651.55
2019-03-08T04:54:08.066Z,98651.91
2019-03-08T04:56:35.021Z,98650.96
2019-03-08T04:59:01.613Z,98647.73
2019-03-08T05:01:28.220Z,98652.91
2019-03-08T05:03:54.909Z,98645.83
2019-03-08T05:06:21.489Z,98655.33
2019-03-08T05:08:48.181Z,98652.58
2019-03-08T05:11:14.753Z,98643.67
2019-03-08T05:13:41.355Z,98639.23
2019-03-08T05:16:07.935Z,98640.80
2019-03-08T05:18:34.543Z,98646.09
2019-03-08T05:21:01.122Z,98647.77
2019-03-08T05:23:27.690Z,98652.22
2019-03-08T05:25:54.263Z,98651.73
2019-03-08T05:28:20.928Z,98644.77
2019-03-08T05:30:47.524Z,98643.08
2019-03-08T05:33:14.461Z,98655.92
2019-03-08T05:35:41.040Z,98657.24
2019-03-08T05:38:07.608Z,98639.38
2019-03-08T05:40:34.183Z,98653.39
2019-03-08T05:43:00.766Z,98637.68
2019-03-08T05:45:27.342Z,98640.18
2019-03-08T05:47:53.926Z,98634.90
2019-03-08T05:50:20.774Z,98637.42
2019-03-08T05:52:47.351Z,98630.72
2019-03-08T05:55:13.926Z,98643.34
2019-03-08T05:57:40.502Z,98638.89
2019-03-08T06:00:07.106Z,98645.02
2019-03-08T06:02:33.675Z,98641.91
2019-03-08T06:05:00.400Z,98630.13
2019-03-08T06:07:26.990Z,98638.16
2019-03-08T06:09:53.993Z,98653.17
2019-03-08T06:12:20.578Z,98641.87
2019-03-08T06:14:47.171Z,98651.11
2019-03-08T06:17:13.759Z,98658.56
2019-03-08T06:19:40.396Z,98657.61
2019-03-08T06:22:06.963Z,98667.59
2019-03-08T06:24:33.556Z,98670.97
2019-03-08T06:27:00.129Z,98667.00
2019-03-08T06:29:27.005Z,98662.56
2019-03-08T06:31:54.638Z,98660.77
2019-03-08T06:34:21.258Z,98669.06
2019-03-08T06:36:48.012Z,98668.58
2019-03-08T06:39:14.601Z,98674.71
2019-03-08T06:41:41.176Z,98674.60
2019-03-08T06:44:07.774Z,98678.82
2019-03-08T06:46:34.730Z,98672.33
2019-03-08T06:49:01.313Z,98680.99
2019-03-08T06:51:27.963Z,98683.78
2019-03-08T06:53:54.545Z,98679.48
2019-03-08T06:56:21.114Z,98679.23
2019-03-08T06:58:47.684Z,98688.63
2019-03-08T07:01:14.260Z,98685.17
2019-03-08T07:03:40.838Z,98694.20
2019-03-08T07:06:07.431Z,98689.50
2019-03-08T07:08:34.067Z,98689.27
2019-03-08T07:11:00.657Z,98675.72
2019-03-08T07:13:28.136Z,98679.45
2019-03-08T07:15:54.792Z,98678.75
2019-03-08T07:18:21.373Z,98677.80
2019-03-08T07:20:47.962Z,98687.75
2019-03-08T07:23:14.909Z,98687.88
2019-03-08T07:25:50.955Z,98688.39
2019-03-08T07:28:10.505Z,98671.45
2019-03-08T07:30:37.105Z,98679.97
2019-03-08T07:33:03.680Z,98677.94
2019-03-08T07:35:30.247Z,98683.25
2019-03-08T07:37:56.834Z,98676.04
2019-03-08T07:40:23.692Z,98682.06
2019-03-08T07:42:50.279Z,98677.36
2019-03-08T07:45:16.935Z,98676.88
2019-03-08T07:47:43.576Z,98679.41
2019-03-08T07:50:10.218Z,98682.16
2019-03-08T07:52:36.824Z,98687.47
2019-03-08T07:55:03.402Z,98681.83
2019-03-08T07:57:29.996Z,98680.75
2019-03-08T07:59:56.573Z,98680.02
2019-03-08T08:02:23.148Z,98687.72
2019-03-08T08:04:49.725Z,98687.88
2019-03-08T08:07:16.305Z,98688.38
2019-03-08T08:09:42.918Z,98686.80
2019-03-08T08:12:09.496Z,98679.31
2019-03-08T08:14:39.645Z,98672.34
2019-03-08T08:17:04.394Z,98674.00
2019-03-08T08:19:31.055Z,98680.36
2019-03-08T08:21:57.651Z,98672.73
2019-03-08T08:24:24.261Z,98675.49
2019-03-08T08:26:50.827Z,98675.45
2019-03-08T08:29:17.397Z,98682.63
2019-03-08T08:31:44.264Z,98677.55
2019-03-08T08:34:10.866Z,98677.25
2019-03-08T08:36:37.476Z,98680.52
2019-03-08T08:39:04.079Z,98677.44
2019-03-08T08:41:30.684Z,98671.70
2019-03-08T08:43:57.266Z,98664.67
2019-03-08T08:46:24.524Z,98668.31
2019-03-08T08:48:51.091Z,98672.66
2019-03-08T08:51:17.715Z,98673.08
2019-03-08T08:53:44.352Z,98667.13
2019-03-08T08:56:10.930Z,98663.59
2019-03-08T08:58:37.538Z,98667.63
2019-03-08T09:01:04.107Z,98670.69
2019-03-08T09:03:30.733Z,98664.52
2019-03-08T09:05:57.312Z,98669.85
2019-03-08T09:08:24.101Z,98673.97
2019-03-08T09:10:50.673Z,98675.94
2019-03-08T09:13:17.465Z,98679.03
2019-03-08T09:15:44.043Z,98674.45
2019-03-08T09:18:10.646Z,98672.19
2019-03-08T09:20:37.236Z,98668.98
2019-03-08T09:23:03.812Z,98675.36
2019-03-08T09:25:30.573Z,98684.05
2019-03-08T09:27:57.153Z,98678.59
2019-03-08T09:30:23.722Z,98671.51
2019-03-08T09:32:58.919Z,98674.22
2019-03-08T09:35:18.648Z,98666.50
2019-03-08T09:37:45.217Z,98663.62
2019-03-08T09:40:12.395Z,98662.46
2019-03-08T09:42:39.346Z,98662.42
2019-03-08T09:45:05.976Z,98676.42
2019-03-08T09:47:32.626Z,98674.33
2019-03-08T09:49:59.283Z,98681.62
2019-03-08T09:52:25.924Z,98690.41
2019-03-08T09:54:52.490Z,98681.66
2019-03-08T09:57:19.075Z,98682.85
2019-03-08T09:59:46.019Z,98682.59
2019-03-08T10:02:12.599Z,98681.00
2019-03-08T10:04:39.184Z,98681.83
2019-03-08T10:07:05.795Z,98707.21
2019-03-08T10:09:32.434Z,98678.17
2019-03-08T10:11:59.046Z,98692.72
2019-03-08T10:14:25.651Z,98689.87
2019-03-08T10:16:52.500Z,98687.97
2019-03-08T10:19:19.076Z,98691.98
2019-03-08T10:21:45.654Z,98694.00
2019-03-08T10:24:12.253Z,98690.98
2019-03-08T10:26:38.832Z,98697.14
2019-03-08T10:29:05.424Z,98688.46
2019-03-08T10:31:32.009Z,98691.20
2019-03-08T10:33:58.617Z,98690.28
2019-03-08T10:36:25.182Z,98678.44
2019-03-08T10:38:51.821Z,98680.48
2019-03-08T10:41:18.407Z,98692.05
2019-03-08T10:43:44.981Z,98685.33
2019-03-08T10:46:15.799Z,98685.86
2019-03-08T10:48:40.004Z,98677.59
2019-03-08T10:51:06.590Z,98675.47
2019-03-08T10:53:33.245Z,98682.44
2019-03-08T10:55:59.863Z,98682.66
2019-03-08T10:58:26.443Z,98679.92
2019-03-08T11:00:53.040Z,98681.19
2019-03-08T11:03:19.614Z,98687.31
2019-03-08T11:05:46.226Z,98679.70
2019-03-08T11:08:12.970Z,98696.39
2019-03-08T11:10:40.677Z,98689.16
2019-03-08T11:13:07.264Z,98692.97
2019-03-08T11:15:33.831Z,98683.45
2019-03-08T11:18:00.500Z,98684.07
2019-03-08T11:20:27.080Z,98680.83
2019-03-08T11:22:53.661Z,98681.82
2019-03-08T11:25:20.226Z,98694.10
2019-03-08T11:27:47.111Z,98690.12
2019-03-08T11:30:13.697Z,98686.43
2019-03-08T11:32:40.318Z,98723.13
2019-03-08T11:35:06.896Z,98690.72
2019-03-08T11:37:33.550Z,98686.02
2019-03-08T11:40:00.186Z,98691.36
2019-03-08T11:42:26.911Z,98688.67
2019-03-08T11:44:53.878Z,98664.86
2019-03-08T11:47:20.465Z,98668.69
2019-03-08T11:49:47.057Z,98674.33
2019-03-08T11:52:15.652Z,98659.20
2019-03-08T11:54:42.255Z,98660.80
2019-03-08T11:57:08.865Z,98659.23
2019-03-08T11:59:35.495Z,98673.46
2019-03-08T12:02:02.347Z,98653.88
2019-03-08T12:04:28.977Z,98658.23
2019-03-08T12:06:55.564Z,98652.09
2019-03-08T12:09:22.136Z,98642.42
2019-03-08T12:11:48.722Z,98633.84
2019-03-08T12:14:15.293Z,98634.66
2019-03-08T12:16:41.917Z,98635.59
2019-03-08T12:19:08.773Z,98648.55
2019-03-08T12:21:35.359Z,98636.36
2019-03-08T12:24:01.934Z,98634.48
2019-03-08T12:26:28.579Z,98626.75
2019-03-08T12:28:55.303Z,98626.73
2019-03-08T12:31:21.871Z,98648.02
2019-03-08T12:33:48.495Z,98647.52
2019-03-08T12:36:15.346Z,98641.16
2019-03-08T12:38:41.938Z,98645.18
2019-03-08T12:41:08.511Z,98640.32
2019-03-08T12:43:35.136Z,98645.79
2019-03-08T12:46:01.705Z,98647.20
2019-03-08T12:48:28.302Z,98641.05
2019-03-08T12:50:54.878Z,98634.41
2019-03-08T12:53:21.898Z,98649.73
2019-03-08T12:55:48.566Z,98650.34
2019-03-08T12:58:15.240Z,98652.89
2019-03-08T13:00:41.803Z,98643.11
2019-03-08T13:03:08.391Z,98651.48
2019-03-08T13:05:34.978Z,98646.27
2019-03-08T13:08:01.552Z,98653.49
2019-03-08T13:10:28.467Z,98656.05
2019-03-08T13:12:55.068Z,98658.44
2019-03-08T13:15:21.722Z,98658.73
2019-03-08T13:17:48.333Z,98653.41
2019-03-08T13:20:14.934Z,98660.05
2019-03-08T13:22:41.510Z,98657.25
2019-03-08T13:25:08.104Z,98646.16
2019-03-08T13:27:35.069Z,98640.04
2019-03-08T13:30:01.684Z,98667.07
2019-03-08T13:32:28.309Z,98669.30
2019-03-08T13:34:54.947Z,98670.83
2019-03-08T13:37:21.514Z,98673.70
2019-03-08T13:39:48.139Z,98670.75
2019-03-08T13:42:14.703Z,98689.33
2019-03-08T13:44:41.366Z,98688.84
2019-03-08T13:47:07.991Z,98688.61
2019-03-08T13:49:34.599Z,98675.89
2019-03-08T13:52:01.170Z,98680.86
2019-03-08T13:54:27.789Z,98680.41
2019-03-08T13:56:54.430Z,98681.36
2019-03-08T13:59:21.114Z,98688.09
2019-03-08T14:01:47.696Z,98697.13
2019-03-08T14:04:14.263Z,98690.52
2019-03-08T14:06:40.845Z,98714.45
2019-03-08T14:09:07.407Z,98707.00
2019-03-08T14:11:33.988Z,98712.27
2019-03-08T14:14:00.563Z,98695.52
2019-03-08T14:16:27.132Z,98709.08
2019-03-08T14:18:53.712Z,98713.17
2019-03-08T14:21:20.462Z,98705.25
2019-03-08T14:23:47.047Z,98720.33
2019-03-08T14:26:13.627Z,98723.00
2019-03-08T14:28:40.294Z,98734.92
2019-03-08T14:31:08.869Z,98717.20
2019-03-08T14:33:38.202Z,98735.80
2019-03-08T14:36:06.082Z,98728.61
2019-03-08T14:38:32.888Z,98738.97
2019-03-08T14:40:59.530Z,98741.55
2019-03-08T14:43:26.098Z,98728.66
2019-03-08T14:45:52.715Z,98739.07
2019-03-08T14:48:19.281Z,98745.32
2019-03-08T14:50:45.876Z,98736.59
2019-03-08T14:53:12.714Z,98743.70
2019-03-08T14:55:39.332Z,98756.05
2019-03-08T14:58:05.900Z,98757.87
2019-03-08T15:00:32.512Z,98754.42
2019-03-08T15:02:59.085Z,98752.55
2019-03-08T15:05:25.683Z,98754.86
2019-03-08T15:07:52.256Z,98767.07
2019-03-08T15:10:18.914Z,98763.39
2019-03-08T15:12:48.861Z,98769.34
2019-03-08T15:15:13.889Z,98778.48
2019-03-08T15:17:40.440Z,98780.39
2019-03-08T15:20:14.930Z,98781.22
2019-03-08T15:22:38.051Z,98786.07
2019-03-08T15:25:03.610Z,98790.42
2019-03-08T15:27:30.246Z,98783.09
2019-03-08T15:29:56.828Z,98787.58
2019-03-08T15:32:23.422Z,98792.52
2019-03-08T15:34:50.021Z,98791.45
2019-03-08T15:37:16.593Z,98793.29
2019-03-08T15:39:43.163Z,98798.61
2019-03-08T15:42:09.762Z,98794.72
2019-03-08T15:44:36.339Z,98792.22
2019-03-08T15:47:02.945Z,98801.57
2019-03-08T15:49:30.590Z,98798.47
2019-03-08T15:51:59.837Z,98806.20
2019-03-08T15:54:26.156Z,98804.87
2019-03-08T15:56:52.761Z,98814.80
2019-03-08T15:59:19.341Z,98826.02
2019-03-08T16:01:45.941Z,98816.80
2019-03-08T16:04:13.083Z,98821.92
2019-03-08T16:06:44.007Z,98820.25
2019-03-08T16:09:08.435Z,98820.62
2019-03-08T16:11:35.325Z,98813.36
2019-03-08T16:14:08.840Z,98825.89
2019-03-08T16:16:30.254Z,98827.50
2019-03-08T16:18:56.821Z,98820.22
2019-03-08T16:21:24.908Z,98818.48
2019-03-08T16:23:51.866Z,98828.34
2019-03-08T16:26:21.274Z,98824.13
2019-03-08T16:28:47.277Z,98825.52
2019-03-08T16:31:14.097Z,98832.94
2019-03-08T16:33:40.688Z,98830.05
2019-03-08T16:36:07.242Z,98835.64
2019-03-08T16:38:33.861Z,98833.12
2019-03-08T16:41:00.710Z,98831.92
2019-03-08T16:43:27.478Z,98843.25
2019-03-08T16:45:54.846Z,98844.73
2019-03-08T16:48:22.380Z,98848.59
2019-03-08T16:50:48.968Z,98852.83
2019-03-08T16:53:15.571Z,98848.96
2019-03-08T16:55:42.414Z,98862.11
2019-03-08T16:58:09.017Z,98856.91
2019-03-08T17:00:35.592Z,98864.52
2019-03-08T17:03:02.210Z,98864.50
2019-03-08T17:05:37.596Z,98875.56
2019-03-08T17:08:04.218Z,98881.24
2019-03-08T17:10:30.799Z,98883.03
2019-03-08T17:12:57.379Z,98875.91
2019-03-08T17:15:23.970Z,98881.22
2019-03-08T17:17:50.553Z,98892.62
2019-03-08T17:20:17.167Z,98888.41
2019-03-08T17:22:43.749Z,98896.20
2019-03-08T17:25:10.427Z,98892.98
2019-03-08T17:27:39.855Z,98895.37
2019-03-08T17:30:06.448Z,98899.93
2019-03-08T17:32:33.034Z,98905.81
2019-03-08T17:34:59.754Z,98924.83
2019-03-08T17:37:26.355Z,98937.22
2019-03-08T17:39:53.307Z,98946.12
2019-03-08T17:42:19.896Z,98951.16
2019-03-08T17:44:46.471Z,98957.41
2019-03-08T17:47:13.076Z,98956.34
2019-03-08T17:49:39.653Z,98945.23
2019-03-08T17:52:06.260Z,98940.02
2019-03-08T17:54:32.846Z,98939.40
2019-03-08T17:56:59.447Z,98936.75
2019-03-08T17:59:26.031Z,98941.67
2019-03-08T18:01:52.649Z,98950.58
2019-03-08T18:04:19.254Z,98947.92
2019-03-08T18:06:45.837Z,98964.77
2019-03-08T18:09:12.417Z,98964.53
2019-03-08T18:11:39.015Z,98963.54
2019-03-08T18:14:05.609Z,98962.06
2019-03-08T18:16:32.174Z,98961.58
2019-03-08T18:18:58.791Z,98957.45
2019-03-08T18:21:25.370Z,98960.31
2019-03-08T18:23:51.994Z,98969.05
2019-03-08T18:26:18.843Z,98971.58
2019-03-08T18:28:45.465Z,98969.25
2019-03-08T18:31:12.113Z,98968.52
2019-03-08T18:33:38.690Z,98970.42
2019-03-08T18:36:05.267Z,98974.49
2019-03-08T18:38:31.843Z,98970.16
2019-03-08T18:40:58.705Z,98979.05
2019-03-08T18:43:25.276Z,98973.75
2019-03-08T18:45:51.895Z,98981.31
2019-03-08T18:48:18.477Z,98983.59
2019-03-08T18:50:45.070Z,98980.61
2019-03-08T18:53:11.654Z,98998.38
2019-03-08T18:55:38.415Z,98995.95
2019-03-08T18:58:04.986Z,99000.13
2019-03-08T19:00:31.556Z,99003.83
2019-03-08T19:02:58.128Z,99009.22
2019-03-08T19:05:24.736Z,99027.83
2019-03-08T19:07:51.309Z,99033.49
2019-03-08T19:10:17.889Z,99039.16
2019-03-08T19:12:44.548Z,99043.28
2019-03-08T19:15:11.215Z,99037.89
2019-03-08T19:17:37.856Z,99047.99
2019-03-08T19:20:04.435Z,99044.50
2019-03-08T19:22:31.559Z,99045.29
2019-03-08T19:24:58.283Z,99049.09
2019-03-08T19:27:25.127Z,99051.13
2019-03-08T19:29:51.766Z,99061.44
2019-03-08T19:32:18.400Z,99064.76
2019-03-08T19:34:44.999Z,99063.80
2019-03-08T19:37:11.576Z,99062.02
2019-03-08T19:39:38.176Z,99058.31
2019-03-08T19:42:05.042Z,99061.23
2019-03-08T19:44:31.784Z,99066.89
2019-03-08T19:46:58.359Z,99069.43
2019-03-08T19:49:24.970Z,99070.48
2019-03-08T19:51:51.545Z,99076.45
2019-03-08T19:54:18.139Z,99083.37
2019-03-08T19:56:44.737Z,99077.57
2019-03-08T19:59:11.312Z,99076.66
2019-03-08T20:01:37.916Z,99076.69
2019-03-08T20:04:04.495Z,99074.58
2019-03-08T20:06:31.118Z,99080.36
2019-03-08T20:08:57.689Z,99081.27
2019-03-08T20:11:24.286Z,99080.81
2019-03-08T20:13:51.040Z,99083.13
2019-03-08T20:16:17.650Z,99091.98
2019-03-08T20:18:44.234Z,99099.20
2019-03-08T20:21:10.873Z,99096.67
2019-03-08T20:23:37.448Z,99087.57
2019-03-08T20:26:04.031Z,99100.68
2019-03-08T20:28:30.894Z,99096.28
2019-03-08T20:30:57.471Z,99111.19
2019-03-08T20:33:24.093Z,99109.30
2019-03-08T20:35:50.661Z,99123.66
2019-03-08T20:38:17.275Z,99107.25
2019-03-08T20:40:43.841Z,99113.19
2019-03-08T20:43:10.463Z,99118.56
2019-03-08T20:45:37.045Z,99118.27
2019-03-08T20:48:03.679Z,99121.03
2019-03-08T20:50:30.266Z,99125.09
2019-03-08T20:52:56.864Z,99124.89
2019-03-08T20:55:23.442Z,99131.20
2019-03-08T20:57:50.037Z,99130.83
2019-03-08T21:00:16.800Z,99128.38
2019-03-08T21:02:43.408Z,99128.08
2019-03-08T21:05:09.979Z,99137.44
2019-03-08T21:07:36.564Z,99137.15
2019-03-08T21:10:03.144Z,99146.47
2019-03-08T21:12:29.728Z,99148.91
2019-03-08T21:14:56.309Z,99147.39
2019-03-08T21:17:22.892Z,99150.25
2019-03-08T21:19:49.506Z,99148.64
2019-03-08T21:22:16.757Z,99158.13
2019-03-08T21:24:43.323Z,99160.02
2019-03-08T21:27:09.899Z,99165.08
2019-03-08T21:29:36.469Z,99165.64
2019-03-08T21:32:03.217Z,99163.59
2019-03-08T21:34:29.799Z,99161.13
2019-03-08T21:36:56.375Z,99167.81
2019-03-08T21:39:22.947Z,99175.25
2019-03-08T21:41:49.519Z,99171.39
2019-03-08T21:44:16.094Z,99178.36
2019-03-08T21:46:42.676Z,99189.20
2019-03-08T21:49:09.265Z,99189.20
2019-03-08T21:51:35.843Z,99194.84
2019-03-08T21:54:02.734Z,99190.05
2019-03-08T21:56:30.134Z,99195.78
2019-03-08T21:58:56.706Z,99202.84
2019-03-08T22:01:23.287Z,99200.13
2019-03-08T22:03:50.141Z,99208.03
2019-03-08T22:06:16.717Z,99211.42
2019-03-08T22:08:43.291Z,99209.99
2019-03-08T22:11:09.875Z,99215.64
2019-03-08T22:13:37.385Z,99221.68
2019-03-08T22:16:03.994Z,99228.36
2019-03-08T22:18:30.944Z,99229.20
2019-03-08T22:20:57.519Z,99226.86
2019-03-08T22:23:24.101Z,99219.30
2019-03-08T22:25:50.667Z,99230.95
2019-03-08T22:28:17.285Z,99231.80
2019-03-08T22:30:43.866Z,99231.67
2019-03-08T22:33:10.443Z,99228.83
2019-03-08T22:35:37.227Z,99234.39
2019-03-08T22:38:03.814Z,99252.16
2019-03-08T22:40:30.426Z,99256.70
2019-03-08T22:42:57.008Z,99268.81
2019-03-08T22:45:23.627Z,99271.15
2019-03-08T22:47:50.207Z,99277.55
2019-03-08T22:50:17.097Z,99285.15
2019-03-08T22:52:43.667Z,99289.48
2019-03-08T22:55:10.265Z,99281.67
2019-03-08T22:57:36.832Z,99280.34
2019-03-08T23:00:03.422Z,99293.52
2019-03-08T23:02:29.998Z,99298.70
2019-03-08T23:04:56.604Z,99299.47
2019-03-08T23:07:23.256Z,99310.02
2019-03-08T23:09:49.866Z,99319.23
2019-03-08T23:12:16.436Z,99317.14
2019-03-08T23:14:43.052Z,99324.66
2019-03-08T23:17:09.626Z,99336.98
2019-03-08T23:19:36.230Z,99338.38
2019-03-08T23:22:03.082Z,99343.73
2019-03-08T23:24:29.749Z,99338.55
2019-03-08T23:26:56.315Z,99347.38
2019-03-08T23:29:22.976Z,99347.38
2019-03-08T23:31:49.565Z,99343.34
2019-03-08T23:34:16.176Z,99345.82
2019-03-08T23:36:42.754Z,99350.54
2019-03-08T23:39:09.324Z,99352.71
2019-03-08T23:41:35.911Z,99351.39
2019-03-08T23:44:02.487Z,99352.24
2019-03-08T23:46:29.144Z,99361.46
2019-03-08T23:48:55.730Z,99364.56
2019-03-08T23:51:22.305Z,99368.59
2019-03-08T23:53:49.154Z,99366.05
2019-03-08T23:56:15.725Z,99370.45
2019-03-08T23:58:42.300Z,99369.99
